Time;durP1;ratioP1;P1;durP2;ratioP2;P2;SDS_P1;SDS_P2;PMS_P1;PMS_P2;Temp;Humidity;BMP_temperature;BMP_pressure;BME280_temperature;BME280_humidity;BME280_pressure;Samples;Min_cycle;Max_cycle;Signal;HPM_P1;HPM_P2
2023/06/17 00:01:40;;;;;;;0.65;0.52;;;;;;;18.11;64.51;93212.31;4988722;28;20484;-73
2023/06/17 00:04:06;;;;;;;0.65;0.65;;;;;;;17.98;65.34;93220.69;4987877;28;20045;-74
2023/06/17 00:06:31;;;;;;;1.50;0.70;;;;;;;18.00;65.29;93229.16;4988550;28;20045;-74
2023/06/17 00:08:57;;;;;;;1.25;0.70;;;;;;;18.04;64.76;93208.44;4987131;28;20073;-74
2023/06/17 00:11:23;;;;;;;1.58;0.65;;;;;;;17.94;65.36;93203.75;4991674;28;20031;-73
2023/06/17 00:13:48;;;;;;;1.95;0.68;;;;;;;18.04;65.49;93210.34;4987108;28;20075;-72
2023/06/17 00:16:17;;;;;;;0.52;0.50;;;;;;;18.04;64.98;93204.97;4987729;28;20088;-74
2023/06/17 00:18:43;;;;;;;1.15;0.65;;;;;;;18.00;65.47;93207.63;4988882;28;20053;-74
2023/06/17 00:21:08;;;;;;;3.28;0.60;;;;;;;18.08;65.22;93213.06;4985692;28;20769;-74
2023/06/17 00:23:34;;;;;;;1.85;0.57;;;;;;;17.88;65.57;93186.41;4988500;28;20382;-73
2023/06/17 00:26:00;;;;;;;0.93;0.70;;;;;;;17.91;65.56;93193.72;4980042;28;20057;-74
2023/06/17 00:28:26;;;;;;;4.72;0.80;;;;;;;17.96;65.21;93189.94;4990063;28;20026;-74
2023/06/17 00:30:51;;;;;;;4.35;0.65;;;;;;;17.88;65.16;93185.63;4989601;28;20097;-74
2023/06/17 00:33:17;;;;;;;1.48;0.77;;;;;;;17.82;64.46;93201.34;4988043;28;20068;-74
2023/06/17 00:35:42;;;;;;;0.88;0.60;;;;;;;17.86;64.98;93194.06;4989869;28;20128;-73
2023/06/17 00:38:08;;;;;;;1.02;0.70;;;;;;;17.49;65.24;93191.47;4988217;28;20388;-74
2023/06/17 00:40:33;;;;;;;0.52;0.50;;;;;;;17.11;66.29;93168.41;4988472;28;20472;-73
2023/06/17 00:42:58;;;;;;;2.22;0.75;;;;;;;17.46;65.58;93210.22;4989501;28;20045;-74
2023/06/17 00:45:24;;;;;;;1.65;0.70;;;;;;;17.44;65.82;93204.47;4986537;28;20771;-74
2023/06/17 00:47:50;;;;;;;1.13;0.70;;;;;;;17.44;65.31;93204.47;4983556;28;20038;-73
2023/06/17 00:50:16;;;;;;;2.33;0.80;;;;;;;17.27;65.32;93186.25;4988849;28;20100;-74
2023/06/17 00:52:44;;;;;;;0.55;0.55;;;;;;;17.30;65.92;93202.44;4991675;28;20033;-74
2023/06/17 00:55:10;;;;;;;1.58;0.80;;;;;;;17.11;66.49;93184.53;4991789;28;20089;-74
2023/06/17 00:57:38;;;;;;;2.00;1.00;;;;;;;17.24;66.71;93198.53;4989127;28;20038;-73
2023/06/17 01:00:10;;;;;;;2.42;0.90;;;;;;;17.09;66.37;93178.78;4991299;28;20128;-74
2023/06/17 01:02:39;;;;;;;1.00;0.90;;;;;;;17.31;66.38;93203.19;4992784;28;20034;-74
2023/06/17 01:05:10;;;;;;;1.27;0.80;;;;;;;17.20;66.42;93195.03;4988192;28;20092;-74
2023/06/17 01:07:50;;;;;;;0.90;0.80;;;;;;;17.08;66.33;93184.50;4991722;28;20149;-74
2023/06/17 01:10:31;;;;;;;2.65;0.80;;;;;;;17.15;66.46;93184.63;4990336;28;20038;-74
2023/06/17 01:12:58;;;;;;;1.40;1.00;;;;;;;17.07;66.81;93194.47;4985999;28;20046;-73
2023/06/17 01:15:25;;;;;;;1.50;0.85;;;;;;;17.04;66.80;93189.84;4989937;28;20096;-73
2023/06/17 01:17:54;;;;;;;1.20;0.77;;;;;;;17.06;66.49;93184.88;4991773;28;20038;-73
2023/06/17 01:20:22;;;;;;;2.30;1.10;;;;;;;17.19;66.56;93201.53;4991259;28;20487;-73
2023/06/17 01:22:52;;;;;;;2.42;0.95;;;;;;;17.05;66.29;93169.13;4992841;28;20484;-74
2023/06/17 01:25:20;;;;;;;1.25;0.90;;;;;;;17.18;66.64;93200.78;4988899;28;20469;-73
2023/06/17 01:27:49;;;;;;;0.85;0.73;;;;;;;17.22;66.70;93200.03;4986010;28;20062;-74
2023/06/17 01:30:15;;;;;;;1.48;0.77;;;;;;;17.21;66.35;93177.00;4994399;28;20559;-72
2023/06/17 01:32:40;;;;;;;2.40;1.10;;;;;;;17.03;66.49;93169.50;4993198;28;20507;-74
2023/06/17 01:35:11;;;;;;;1.20;0.90;;;;;;;17.33;65.61;93179.41;4991441;28;20084;-74
2023/06/17 01:37:49;;;;;;;2.35;1.40;;;;;;;17.27;66.58;93194.31;4998510;28;20614;-74
2023/06/17 01:40:19;;;;;;;3.20;1.70;;;;;;;17.28;66.46;93193.19;4988705;28;20038;-74
2023/06/17 01:42:46;;;;;;;2.65;1.25;;;;;;;17.23;66.44;93185.44;4992664;28;20042;-73
2023/06/17 01:45:13;;;;;;;3.35;1.35;;;;;;;17.17;66.71;93174.25;4988515;28;20046;-74
2023/06/17 01:47:39;;;;;;;4.20;1.15;;;;;;;17.13;66.59;93165.38;4984829;28;20042;-74
2023/06/17 01:50:05;;;;;;;8.00;1.20;;;;;;;17.30;66.28;93177.47;4991316;28;20026;-73
2023/06/17 01:52:31;;;;;;;2.35;1.38;;;;;;;17.29;66.21;93179.38;4989832;28;20040;-73
2023/06/17 01:54:57;;;;;;;3.05;1.60;;;;;;;17.25;66.39;93185.88;4985526;28;20049;-73
2023/06/17 01:57:23;;;;;;;1.45;1.35;;;;;;;17.11;66.30;93168.41;4990093;28;20038;-74
2023/06/17 01:59:48;;;;;;;3.95;1.13;;;;;;;17.23;66.18;93182.75;4990788;28;20667;-73
2023/06/17 02:02:14;;;;;;;0.68;0.68;;;;;;;17.12;66.84;93179.94;4989035;28;20042;-74
2023/06/17 02:04:41;;;;;;;3.15;0.88;;;;;;;17.09;67.47;93176.09;4990489;28;20022;-74
2023/06/17 02:07:06;;;;;;;1.67;1.20;;;;;;;17.19;67.22;93188.09;4991498;28;20409;-73
2023/06/17 02:09:32;;;;;;;1.92;1.38;;;;;;;16.93;67.77;93178.22;4992218;28;20038;-74
2023/06/17 02:11:57;;;;;;;1.98;1.30;;;;;;;16.89;67.97;93166.66;4989350;28;20603;-72
2023/06/17 02:14:23;;;;;;;2.10;1.63;;;;;;;17.13;67.41;93182.28;4991520;28;20046;-74
2023/06/17 02:16:49;;;;;;;2.92;2.47;;;;;;;17.05;67.27;93164.53;4993430;28;20030;-74
2023/06/17 02:19:15;;;;;;;2.85;2.20;;;;;;;17.11;66.79;93168.41;4990307;28;20500;-74
2023/06/17 02:21:42;;;;;;;2.13;1.52;;;;;;;17.08;67.31;93168.38;4992481;28;20042;-73
2023/06/17 02:24:08;;;;;;;3.13;1.88;;;;;;;17.00;67.27;93159.50;4994217;28;20085;-74
2023/06/17 02:26:34;;;;;;;1.77;1.42;;;;;;;16.88;67.45;93148.22;4986973;28;20041;-73
2023/06/17 02:28:59;;;;;;;4.70;2.72;;;;;;;17.15;67.05;93176.56;4989030;28;20049;-74
2023/06/17 02:31:28;;;;;;;6.57;2.92;;;;;;;17.13;67.26;93179.59;4991336;28;20018;-74
2023/06/17 02:33:55;;;;;;;4.18;2.60;;;;;;;17.10;67.55;93192.97;4990008;28;20040;-75
2023/06/17 02:36:21;;;;;;;4.60;3.25;;;;;;;17.12;67.30;93186.09;4988101;28;20034;-74
2023/06/17 02:38:46;;;;;;;1.83;1.38;;;;;;;17.04;66.90;93160.31;4984408;28;20085;-72
2023/06/17 02:41:12;;;;;;;5.07;2.40;;;;;;;17.14;67.49;93181.16;4989788;28;20050;-74
2023/06/17 02:43:37;;;;;;;8.13;4.85;;;;;;;17.15;67.15;93190.78;4990815;28;20320;-74
2023/06/17 02:46:02;;;;;;;5.72;3.22;;;;;;;17.16;67.11;93192.28;4990038;28;20100;-74
2023/06/17 02:48:28;;;;;;;2.30;1.90;;;;;;;17.20;66.94;93189.66;4991431;28;20037;-73
2023/06/17 02:50:54;;;;;;;2.55;1.63;;;;;;;17.15;66.70;93185.41;4989868;28;20128;-73
2023/06/17 02:53:20;;;;;;;3.22;1.20;;;;;;;17.11;66.55;93175.72;4989342;28;20306;-74
2023/06/17 02:55:46;;;;;;;1.42;1.02;;;;;;;17.07;66.68;93183.72;4991159;28;20397;-73
2023/06/17 02:58:15;;;;;;;2.40;0.90;;;;;;;17.00;66.97;93188.28;4991448;28;20065;-74
2023/06/17 03:00:44;;;;;;;1.38;0.80;;;;;;;16.89;67.71;93174.72;4988941;28;20034;-74
2023/06/17 03:03:10;;;;;;;1.30;1.17;;;;;;;16.83;67.49;93167.34;4989383;28;20030;-73
2023/06/17 03:05:37;;;;;;;1.90;1.13;;;;;;;16.95;67.48;93197.44;4988313;28;20273;-73
2023/06/17 03:08:03;;;;;;;3.40;0.73;;;;;;;16.95;66.99;93202.03;4989295;28;20026;-73
2023/06/17 03:10:29;;;;;;;3.72;0.90;;;;;;;16.85;67.76;93198.09;4986022;28;20022;-74
2023/06/17 03:12:54;;;;;;;1.63;0.80;;;;;;;16.77;67.87;93190.31;4988767;28;20038;-74
2023/06/17 03:15:20;;;;;;;3.20;1.10;;;;;;;16.71;68.52;93203.28;4988491;28;20038;-75
2023/06/17 03:17:46;;;;;;;2.25;1.60;;;;;;;16.43;68.87;93201.00;4987917;28;20108;-74
2023/06/17 03:20:12;;;;;;;2.63;1.50;;;;;;;16.43;69.27;93192.22;4988624;28;20553;-73
2023/06/17 03:22:37;;;;;;;6.82;2.70;;;;;;;16.52;69.45;93217.63;4992643;28;20030;-73
2023/06/17 03:25:03;;;;;;;4.18;2.97;;;;;;;16.60;69.08;93213.13;4986428;28;20104;-74
2023/06/17 03:27:28;;;;;;;1.83;1.55;;;;;;;16.65;68.34;93204.75;4987302;28;20027;-74
2023/06/17 03:29:53;;;;;;;1.83;1.50;;;;;;;16.52;68.83;93195.41;4984276;28;20043;-73
2023/06/17 03:32:19;;;;;;;2.53;2.10;;;;;;;16.54;69.16;93198.47;4987629;28;20044;-74
2023/06/17 03:34:45;;;;;;;1.92;1.52;;;;;;;16.55;68.38;93190.06;4993281;28;20444;-74
2023/06/17 03:37:11;;;;;;;2.30;2.10;;;;;;;16.55;68.31;93198.13;4989546;28;20031;-74
2023/06/17 03:39:36;;;;;;;2.25;2.05;;;;;;;16.51;68.98;93215.31;4988701;28;20044;-74
2023/06/17 03:42:02;;;;;;;2.20;2.00;;;;;;;16.54;69.54;93219.94;4993329;28;20045;-74
2023/06/17 03:44:27;;;;;;;2.08;1.50;;;;;;;16.58;68.88;93215.38;4990022;28;20419;-73
2023/06/17 03:46:52;;;;;;;2.22;1.80;;;;;;;16.52;69.33;93224.91;4985877;28;20640;-73
2023/06/17 03:49:18;;;;;;;1.25;1.00;;;;;;;16.61;68.91;93222.72;4990334;28;20025;-74
2023/06/17 03:51:43;;;;;;;1.17;1.08;;;;;;;16.70;68.34;93223.22;4989653;28;20148;-74
2023/06/17 03:54:09;;;;;;;0.90;0.90;;;;;;;16.58;68.85;93228.81;4989139;28;20064;-74
2023/06/17 03:56:35;;;;;;;0.80;0.80;;;;;;;16.61;68.48;93220.03;4985401;28;20039;-73
2023/06/17 03:59:00;;;;;;;1.15;0.93;;;;;;;16.56;68.69;93228.41;4989579;28;20073;-73
2023/06/17 04:01:26;;;;;;;2.33;1.10;;;;;;;16.46;69.06;93229.81;4987270;28;20533;-73
2023/06/17 04:03:51;;;;;;;1.10;1.00;;;;;;;16.50;69.02;93241.38;4993410;28;20049;-73
2023/06/17 04:06:16;;;;;;;1.17;0.93;;;;;;;16.42;69.15;93238.97;4990633;28;20041;-74
2023/06/17 04:08:43;;;;;;;2.55;0.93;;;;;;;16.43;69.42;93243.94;4988081;28;20125;-72
2023/06/17 04:11:09;;;;;;;0.80;0.80;;;;;;;16.08;69.84;93225.44;4987447;28;20423;-74
2023/06/17 04:13:34;;;;;;;1.35;0.98;;;;;;;16.05;70.56;93238.78;4985682;28;20046;-73
2023/06/17 04:16:00;;;;;;;4.30;0.80;;;;;;;16.17;70.35;93247.41;4988504;28;20030;-74
2023/06/17 04:18:27;;;;;;;0.68;0.68;;;;;;;16.20;70.18;93225.22;4987305;28;20118;-73
2023/06/17 04:20:56;;;;;;;1.15;0.70;;;;;;;16.24;69.12;93212.63;4988982;28;20052;-73
2023/06/17 04:23:25;;;;;;;1.63;0.90;;;;;;;16.33;69.54;93244.56;4990406;28;20052;-74
2023/06/17 04:25:50;;;;;;;0.90;0.70;;;;;;;16.35;69.88;93258.41;4989367;28;20029;-73
2023/06/17 04:28:17;;;;;;;1.17;0.88;;;;;;;16.47;69.09;93252.84;4985490;28;20841;-74
2023/06/17 04:30:45;;;;;;;0.65;0.65;;;;;;;16.46;68.66;93242.47;4985915;28;20523;-74
2023/06/17 04:33:12;;;;;;;0.73;0.60;;;;;;;16.51;68.84;93263.63;4984570;28;20557;-73
2023/06/17 04:35:42;;;;;;;1.40;0.88;;;;;;;16.53;68.21;93251.38;4987830;28;20504;-73
2023/06/17 04:38:11;;;;;;;2.17;0.60;;;;;;;16.58;68.60;93258.34;4988795;28;20105;-72
2023/06/17 04:40:37;;;;;;;2.40;0.90;;;;;;;16.58;68.67;93252.97;4987132;28;20528;-75
2023/06/17 04:43:03;;;;;;;1.02;0.60;;;;;;;16.65;68.92;93263.81;4986813;28;20042;-74
2023/06/17 04:45:29;;;;;;;3.08;2.78;;;;;;;16.45;68.66;93222.13;4985325;28;20310;-74
2023/06/17 04:47:54;;;;;;;3.33;3.03;;;;;;;16.56;68.63;93266.00;4989318;28;20149;-74
2023/06/17 04:50:20;;;;;;;11.82;10.20;;;;;;;16.70;68.55;93260.81;4989105;28;20043;-73
2023/06/17 04:52:51;;;;;;;10.43;9.43;;;;;;;16.75;68.56;93269.31;4986932;28;20027;-74
2023/06/17 04:55:18;;;;;;;8.00;6.93;;;;;;;16.71;68.99;93265.06;4988035;28;20045;-74
2023/06/17 04:57:44;;;;;;;3.85;3.35;;;;;;;16.69;69.21;93264.63;4988536;28;20443;-74
2023/06/17 05:00:11;;;;;;;1.95;1.55;;;;;;;16.69;69.43;93261.94;4986978;28;20108;-75
2023/06/17 05:02:40;;;;;;;7.13;1.10;;;;;;;16.77;68.71;93267.03;4992885;28;21041;-74
2023/06/17 05:05:06;;;;;;;2.72;2.30;;;;;;;16.66;69.12;93265.38;4988159;28;20054;-75
2023/06/17 05:07:35;;;;;;;5.68;2.85;;;;;;;16.51;69.61;93259.03;4987849;28;20029;-73
2023/06/17 05:10:00;;;;;;;4.53;1.23;;;;;;;16.51;70.09;93261.72;4986686;28;20054;-73
2023/06/17 05:12:26;;;;;;;3.40;0.80;;;;;;;16.61;69.87;93268.38;4985739;28;20149;-74
2023/06/17 05:14:52;;;;;;;0.45;0.40;;;;;;;16.65;69.75;93277.22;4987955;28;20046;-73
2023/06/17 05:17:17;;;;;;;1.08;0.60;;;;;;;16.57;69.86;93264.88;4988278;28;20070;-74
2023/06/17 05:19:43;;;;;;;0.57;0.57;;;;;;;16.62;69.45;93269.91;4989165;28;20024;-73
2023/06/17 05:22:08;;;;;;;5.15;2.58;;;;;;;16.60;69.13;93261.44;4988899;28;20038;-74
2023/06/17 05:24:34;;;;;;;3.15;2.20;;;;;;;16.68;68.64;93271.91;4987200;28;20513;-74
2023/06/17 05:27:00;;;;;;;1.90;1.60;;;;;;;16.44;68.84;93242.03;4988173;28;20039;-74
2023/06/17 05:29:26;;;;;;;2.13;0.90;;;;;;;16.61;68.99;93282.56;4988154;28;20037;-74
2023/06/17 05:31:51;;;;;;;0.68;0.55;;;;;;;16.51;69.25;93283.19;4988279;28;20031;-72
2023/06/17 05:34:17;;;;;;;0.82;0.70;;;;;;;16.49;69.21;93288.13;4988367;28;20483;-75
2023/06/17 05:36:43;;;;;;;1.90;0.50;;;;;;;16.42;69.76;93292.66;4990087;28;20042;-74
2023/06/17 05:39:08;;;;;;;0.75;0.43;;;;;;;16.33;70.11;93281.41;4985221;28;20045;-74
2023/06/17 05:41:33;;;;;;;1.35;0.70;;;;;;;16.18;70.97;93288.44;4990032;28;20568;-74
2023/06/17 05:43:59;;;;;;;3.70;1.33;;;;;;;16.09;71.35;93291.34;4984651;28;20041;-74
2023/06/17 05:46:24;;;;;;;0.77;0.60;;;;;;;16.10;70.36;93263.38;4989389;28;20109;-75
2023/06/17 05:48:49;;;;;;;0.60;0.60;;;;;;;16.08;71.73;93284.44;4988906;28;20121;-73
2023/06/17 05:51:18;;;;;;;2.70;1.33;;;;;;;16.13;71.50;93284.16;4986912;28;20042;-75
2023/06/17 05:53:44;;;;;;;0.70;0.60;;;;;;;16.11;70.50;93266.84;4989652;28;20115;-74
2023/06/17 05:56:09;;;;;;;0.70;0.52;;;;;;;16.05;71.04;93269.06;4990480;28;20064;-74
2023/06/17 05:58:35;;;;;;;0.45;0.45;;;;;;;15.96;71.29;93268.53;4993151;28;20445;-74
2023/06/17 06:01:01;;;;;;;0.55;0.40;;;;;;;16.03;71.21;93268.66;4991079;28;20636;-72
2023/06/17 06:03:26;;;;;;;2.00;0.45;;;;;;;16.05;71.42;93271.75;4990797;28;20246;-75
2023/06/17 06:05:52;;;;;;;0.40;0.30;;;;;;;16.11;71.63;93283.72;4988773;28;20465;-73
2023/06/17 06:08:17;;;;;;;0.63;0.38;;;;;;;15.84;72.21;93266.06;4988864;28;20042;-74
2023/06/17 06:10:43;;;;;;;0.93;0.40;;;;;;;15.97;72.21;93286.19;4983768;28;20038;-74
2023/06/17 06:13:08;;;;;;;0.40;0.40;;;;;;;16.00;72.18;93274.72;4988016;28;20436;-71
2023/06/17 06:15:34;;;;;;;0.57;0.40;;;;;;;16.16;71.55;93285.31;4990506;28;20038;-75
2023/06/17 06:17:59;;;;;;;0.90;0.40;;;;;;;16.09;71.89;93285.19;5000884;28;20132;-73
2023/06/17 06:20:26;;;;;;;0.30;0.30;;;;;;;16.03;71.87;93279.38;4989059;28;20161;-74
2023/06/17 06:22:51;;;;;;;0.32;0.30;;;;;;;16.12;71.05;93290.63;4990895;28;20038;-74
2023/06/17 06:25:17;;;;;;;2.38;0.40;;;;;;;16.06;72.02;93299.34;5003557;28;20026;-73
2023/06/17 06:27:42;;;;;;;3.83;0.60;;;;;;;16.08;71.74;93300.53;4990687;28;20678;-73
2023/06/17 06:30:08;;;;;;;0.50;0.50;;;;;;;16.06;71.55;93297.44;4990705;28;20916;-74
2023/06/17 06:32:33;;;;;;;1.23;0.50;;;;;;;16.00;71.76;93293.50;4991480;28;20038;-74
2023/06/17 06:34:59;;;;;;;2.17;0.40;;;;;;;15.99;72.42;93281.22;4989290;28;20029;-75
2023/06/17 06:37:24;;;;;;;0.68;0.50;;;;;;;15.90;72.46;93289.50;4977001;28;20330;-75
2023/06/17 06:39:50;;;;;;;1.85;0.43;;;;;;;16.03;71.90;93300.84;4983194;28;20412;-74
2023/06/17 06:42:15;;;;;;;2.10;0.40;;;;;;;16.08;71.79;93311.28;4989933;28;20034;-74
2023/06/17 06:44:40;;;;;;;1.00;0.95;;;;;;;15.82;72.83;93305.84;4988891;28;20046;-75
2023/06/17 06:47:06;;;;;;;0.40;0.40;;;;;;;15.96;72.59;93313.34;4990717;28;20033;-74
2023/06/17 06:49:31;;;;;;;3.25;0.85;;;;;;;15.86;72.69;93291.38;4989125;28;20071;-73
2023/06/17 06:51:56;;;;;;;0.73;0.50;;;;;;;15.88;72.38;93291.03;4991725;28;20045;-74
2023/06/17 06:54:22;;;;;;;0.50;0.30;;;;;;;15.41;72.96;93241.19;4989894;28;20425;-75
2023/06/17 06:56:48;;;;;;;0.82;0.40;;;;;;;15.89;73.06;93308.63;4988366;28;20196;-74
2023/06/17 06:59:13;;;;;;;2.28;0.75;;;;;;;15.64;74.48;93288.69;4989771;28;20038;-74
2023/06/17 07:01:39;;;;;;;0.68;0.68;;;;;;;15.88;73.39;93315.16;4995315;28;20025;-74
2023/06/17 07:04:04;;;;;;;0.50;0.50;;;;;;;15.77;74.03;93298.09;4986962;28;20136;-73
2023/06/17 07:06:30;;;;;;;1.02;0.57;;;;;;;15.80;74.18;93297.38;4990449;28;20037;-74
2023/06/17 07:08:55;;;;;;;0.50;0.50;;;;;;;16.01;73.76;93303.09;4989046;28;20077;-75
2023/06/17 07:11:21;;;;;;;2.97;1.95;;;;;;;15.95;73.39;93285.75;4992296;28;20092;-74
2023/06/17 07:13:46;;;;;;;2.25;1.92;;;;;;;16.02;72.83;93296.59;4989636;28;20046;-73
2023/06/17 07:16:12;;;;;;;6.15;5.47;;;;;;;16.09;73.45;93296.72;4991063;28;20399;-74
2023/06/17 07:18:37;;;;;;;5.30;4.80;;;;;;;16.23;73.33;93296.91;4995545;28;20046;-76
2023/06/17 07:21:02;;;;;;;1.20;1.10;;;;;;;16.40;72.34;93300.25;4989577;28;20053;-74
2023/06/17 07:23:28;;;;;;;5.60;0.63;;;;;;;16.27;72.81;93308.50;4992297;28;20038;-76
2023/06/17 07:25:53;;;;;;;1.45;0.63;;;;;;;16.23;73.26;93301.53;4988071;28;20037;-74
2023/06/17 07:28:19;;;;;;;0.80;0.50;;;;;;;16.33;72.81;93306.28;4990484;28;20649;-74
2023/06/17 07:30:44;;;;;;;1.40;0.90;;;;;;;16.27;72.88;93297.78;4986608;28;20041;-75
2023/06/17 07:33:10;;;;;;;0.50;0.50;;;;;;;16.35;72.60;93311.31;4988012;28;20042;-74
2023/06/17 07:35:35;;;;;;;1.40;0.50;;;;;;;16.35;72.63;93285.25;4988153;28;20706;-74
2023/06/17 07:38:01;;;;;;;1.30;0.50;;;;;;;16.38;72.50;93299.88;4986370;28;20851;-74
2023/06/17 07:40:26;;;;;;;0.70;0.50;;;;;;;16.44;72.79;93301.09;4989280;28;20391;-75
2023/06/17 07:42:51;;;;;;;0.82;0.70;;;;;;;16.41;73.31;93313.34;4987080;28;20498;-74
2023/06/17 07:45:17;;;;;;;0.68;0.60;;;;;;;16.48;73.12;93318.00;4984274;28;20141;-73
2023/06/17 07:47:42;;;;;;;1.48;0.68;;;;;;;16.49;72.86;93314.97;4985310;28;20041;-76
2023/06/17 07:50:08;;;;;;;0.95;0.88;;;;;;;16.47;73.82;93327.22;4987238;28;20876;-73
2023/06/17 07:52:35;;;;;;;1.75;0.60;;;;;;;16.34;74.53;93318.59;4992915;28;20034;-74
2023/06/17 07:55:05;;;;;;;0.65;0.55;;;;;;;16.44;74.87;93322.56;4985187;28;20031;-75
2023/06/17 07:57:30;;;;;;;0.90;0.45;;;;;;;16.55;73.59;93318.91;4988351;28;20585;-75
2023/06/17 07:59:56;;;;;;;0.50;0.50;;;;;;;16.58;73.24;93302.06;4988227;28;20030;-74
2023/06/17 08:02:21;;;;;;;0.40;0.40;;;;;;;16.66;73.66;93329.81;4988528;28;20037;-72
2023/06/17 08:04:48;;;;;;;1.55;0.40;;;;;;;16.61;73.39;93327.44;4988649;28;20627;-74
2023/06/17 08:07:13;;;;;;;0.68;0.65;;;;;;;16.69;72.82;93334.44;4988379;28;20026;-75
2023/06/17 08:09:39;;;;;;;0.40;0.40;;;;;;;16.73;72.38;93305.72;4989017;28;20492;-73
2023/06/17 08:12:05;;;;;;;0.45;0.45;;;;;;;16.80;72.59;93329.22;4987202;28;20042;-74
2023/06/17 08:14:30;;;;;;;0.50;0.47;;;;;;;16.84;72.05;93336.19;4991243;28;20050;-74
2023/06/17 08:16:55;;;;;;;0.82;0.40;;;;;;;16.64;72.01;93313.25;4986689;28;20027;-73
2023/06/17 08:19:21;;;;;;;0.70;0.43;;;;;;;16.75;72.28;93333.75;4993698;28;20021;-74
2023/06/17 08:21:47;;;;;;;0.88;0.60;;;;;;;16.80;71.93;93324.63;4988836;28;20038;-75
2023/06/17 08:24:20;;;;;;;1.80;0.70;;;;;;;16.73;73.06;93329.88;5004885;28;20038;-73
2023/06/17 08:26:46;;;;;;;3.83;0.98;;;;;;;16.77;73.01;93328.78;4987190;28;20083;-74
2023/06/17 08:29:15;;;;;;;1.90;0.75;;;;;;;16.52;72.90;93294.72;4988033;28;20423;-75
2023/06/17 08:31:42;;;;;;;0.70;0.70;;;;;;;16.71;73.57;93334.84;4990175;28;20549;-74
2023/06/17 08:34:08;;;;;;;0.85;0.50;;;;;;;16.79;73.42;93333.81;4989304;28;20046;-75
2023/06/17 08:36:34;;;;;;;0.82;0.60;;;;;;;16.71;73.10;93334.84;4988741;28;20046;-75
2023/06/17 08:39:00;;;;;;;0.77;0.50;;;;;;;16.64;72.68;93324.00;4992064;28;20041;-74
2023/06/17 08:41:27;;;;;;;2.10;0.60;;;;;;;16.66;73.14;93325.22;4987422;28;20042;-75
2023/06/17 08:43:56;;;;;;;1.27;0.70;;;;;;;16.73;73.94;93340.63;4988045;28;20101;-75
2023/06/17 08:46:21;;;;;;;1.10;0.70;;;;;;;16.51;74.26;93317.31;4990106;28;20046;-73
2023/06/17 08:48:49;;;;;;;1.23;0.65;;;;;;;16.57;74.45;93337.34;4987860;28;20095;-75
2023/06/17 08:51:14;;;;;;;1.30;0.93;;;;;;;16.63;75.41;93341.25;4987164;28;20034;-75
2023/06/17 08:53:44;;;;;;;1.02;0.63;;;;;;;16.61;74.89;93303.25;4987782;28;20040;-75
2023/06/17 08:56:11;;;;;;;1.02;0.80;;;;;;;16.73;74.41;93332.56;4985104;28;20129;-75
2023/06/17 08:58:37;;;;;;;3.10;1.00;;;;;;;16.85;74.34;93337.72;4988971;28;20145;-75
2023/06/17 09:01:04;;;;;;;1.73;1.00;;;;;;;16.70;74.59;93331.41;4987719;28;20215;-74
2023/06/17 09:03:36;;;;;;;1.00;0.80;;;;;;;16.72;74.25;93341.78;4987391;28;20037;-74
2023/06/17 09:06:02;;;;;;;0.93;0.68;;;;;;;16.58;74.88;93336.97;4985764;28;20026;-75
2023/06/17 09:08:32;;;;;;;1.25;0.80;;;;;;;16.53;74.76;93320.38;4986832;28;20046;-73
2023/06/17 09:11:05;;;;;;;1.10;1.00;;;;;;;16.58;75.33;93334.28;4986986;28;20026;-76
2023/06/17 09:13:30;;;;;;;2.25;0.75;;;;;;;16.59;75.18;93335.06;4986891;28;20377;-74
2023/06/17 09:15:56;;;;;;;2.42;1.30;;;;;;;16.59;75.66;93324.31;4987347;28;20088;-75
2023/06/17 09:18:21;;;;;;;2.90;1.10;;;;;;;16.63;76.29;93331.28;4987068;28;20070;-73
2023/06/17 09:20:57;;;;;;;1.75;1.42;;;;;;;16.60;76.10;93325.88;4987801;28;20088;-74
2023/06/17 09:23:25;;;;;;;1.15;1.05;;;;;;;16.67;75.51;93331.34;4987144;28;20037;-74
2023/06/17 09:26:04;;;;;;;2.08;1.88;;;;;;;16.63;75.17;93330.50;4992591;28;20395;-74
2023/06/17 09:28:31;;;;;;;1.20;1.10;;;;;;;16.69;76.52;93334.44;4991215;28;20329;-74
2023/06/17 09:30:59;;;;;;;1.25;1.13;;;;;;;16.70;75.91;93327.94;4990864;28;20046;-75
2023/06/17 09:33:25;;;;;;;1.40;1.30;;;;;;;16.77;76.65;93336.06;4992149;28;20204;-75
2023/06/17 09:36:01;;;;;;;1.65;1.15;;;;;;;16.70;75.87;93325.25;4989359;28;20044;-74
2023/06/17 09:38:28;;;;;;;1.23;1.13;;;;;;;16.85;75.15;93332.38;4992150;28;20042;-73
2023/06/17 09:40:54;;;;;;;1.42;1.33;;;;;;;16.65;76.98;93338.97;4990398;28;20026;-74
2023/06/17 09:43:25;;;;;;;1.95;0.98;;;;;;;16.82;76.82;93338.44;5005898;28;20040;-76
2023/06/17 09:45:59;;;;;;;1.08;0.73;;;;;;;16.75;76.06;93338.38;4996274;28;20034;-74
2023/06/17 09:48:30;;;;;;;1.60;0.85;;;;;;;16.77;75.55;93330.69;4992500;28;20065;-74
2023/06/17 09:50:56;;;;;;;0.80;0.80;;;;;;;16.84;74.84;93335.41;4997507;28;20038;-75
2023/06/17 09:53:29;;;;;;;0.70;0.70;;;;;;;16.66;76.21;93335.94;4988946;28;20037;-74
2023/06/17 09:55:57;;;;;;;0.63;0.63;;;;;;;16.79;75.44;93344.56;4990838;28;20038;-74
2023/06/17 09:58:26;;;;;;;1.02;0.85;;;;;;;16.91;74.72;93340.88;5005718;28;20632;-74
2023/06/17 10:00:52;;;;;;;0.70;0.70;;;;;;;16.81;74.70;93342.28;4989923;28;20635;-74
2023/06/17 10:03:18;;;;;;;0.63;0.63;;;;;;;16.91;73.71;93330.13;4991456;28;20424;-74
2023/06/17 10:05:52;;;;;;;0.68;0.68;;;;;;;16.83;74.13;93353.44;4994831;28;20030;-74
2023/06/17 10:08:19;;;;;;;0.90;0.60;;;;;;;16.69;74.77;93343.25;4992944;28;20905;-74
2023/06/17 10:10:46;;;;;;;1.40;0.80;;;;;;;16.96;73.74;93348.63;4990681;28;20036;-72
2023/06/17 10:13:12;;;;;;;2.05;0.70;;;;;;;17.05;73.55;93349.91;4991345;28;20131;-74
2023/06/17 10:15:38;;;;;;;1.08;0.63;;;;;;;17.05;73.46;93349.91;4991256;28;20037;-75
2023/06/17 10:18:07;;;;;;;0.98;0.70;;;;;;;17.18;72.34;93364.66;4993370;28;20116;-74
2023/06/17 10:20:34;;;;;;;1.45;0.77;;;;;;;17.06;72.75;93348.00;4988753;28;20121;-73
2023/06/17 10:23:01;;;;;;;1.00;0.50;;;;;;;17.03;72.21;93333.34;4992353;28;20092;-74
2023/06/17 10:25:27;;;;;;;1.85;0.60;;;;;;;17.11;72.67;93345.72;4993496;28;20029;-75
2023/06/17 10:27:52;;;;;;;5.65;0.70;;;;;;;17.14;72.02;93355.03;4991810;28;20593;-73
2023/06/17 10:30:24;;;;;;;0.70;0.70;;;;;;;17.13;72.29;93364.19;4990198;28;20065;-74
2023/06/17 10:33:01;;;;;;;0.90;0.70;;;;;;;17.11;72.95;93367.22;4990280;28;20552;-75
2023/06/17 10:35:45;;;;;;;1.63;0.60;;;;;;;17.06;72.69;93359.47;4987735;28;20053;-73
2023/06/17 10:38:30;;;;;;;0.50;0.50;;;;;;;17.05;72.60;93347.22;4989195;28;20034;-74
2023/06/17 10:40:56;;;;;;;0.80;0.80;;;;;;;17.08;72.09;93351.84;5002028;28;20054;-74
2023/06/17 10:43:22;;;;;;;0.98;0.70;;;;;;;17.13;71.78;93351.56;4989238;28;20030;-74
2023/06/17 10:45:56;;;;;;;1.45;0.90;;;;;;;17.22;72.30;93366.63;4987598;28;20030;-75
2023/06/17 10:48:28;;;;;;;3.47;0.80;;;;;;;17.13;71.90;93362.31;4987319;28;20037;-74
2023/06/17 10:50:56;;;;;;;0.85;0.70;;;;;;;17.18;72.07;93364.66;4985744;28;20048;-74
2023/06/17 10:53:25;;;;;;;0.80;0.80;;;;;;;17.07;72.27;93349.50;4985458;28;20030;-76
2023/06/17 10:55:51;;;;;;;1.02;0.90;;;;;;;17.12;72.04;93365.31;4987543;28;20683;-75
2023/06/17 10:58:16;;;;;;;2.75;0.95;;;;;;;17.13;72.23;93367.69;4989735;28;20081;-75
2023/06/17 11:00:41;;;;;;;1.55;0.90;;;;;;;17.01;72.34;93357.13;4985583;28;20038;-74
2023/06/17 11:03:08;;;;;;;0.77;0.77;;;;;;;17.06;72.85;93370.22;4990498;28;20041;-75
2023/06/17 11:05:38;;;;;;;1.05;0.80;;;;;;;17.08;72.97;93372.56;4990495;28;20102;-75
2023/06/17 11:08:04;;;;;;;1.88;0.80;;;;;;;17.14;72.27;93361.16;4989866;28;20030;-74
2023/06/17 11:10:29;;;;;;;1.48;0.90;;;;;;;17.27;71.60;93375.13;4991734;28;20935;-74
2023/06/17 11:12:55;;;;;;;4.97;0.98;;;;;;;17.20;72.39;93369.69;4986300;28;20568;-75
2023/06/17 11:15:23;;;;;;;1.48;1.38;;;;;;;17.02;72.83;93374.78;4989166;28;20100;-74
2023/06/17 11:18:01;;;;;;;3.17;1.40;;;;;;;17.11;72.21;93377.97;4989837;28;20521;-75
2023/06/17 11:20:30;;;;;;;3.88;1.50;;;;;;;17.00;71.62;93352.91;4988231;28;20084;-74
2023/06/17 11:22:55;;;;;;;2.55;1.58;;;;;;;16.91;71.29;93370.44;4990353;28;20034;-74
2023/06/17 11:25:21;;;;;;;2.47;1.33;;;;;;;16.93;72.38;93370.81;4990477;28;20257;-76
2023/06/17 11:27:46;;;;;;;3.10;1.30;;;;;;;17.02;72.41;93374.78;4990564;28;20444;-74
2023/06/17 11:30:14;;;;;;;2.55;1.40;;;;;;;16.80;73.91;93385.59;4990631;28;20038;-74
2023/06/17 11:32:43;;;;;;;1.80;1.35;;;;;;;16.79;72.51;93382.16;4991261;28;20041;-75